Time;durP1;ratioP1;P1;durP2;ratioP2;P2;SDS_P1;SDS_P2;PMS_P1;PMS_P2;Temp;Humidity;BMP_temperature;BMP_pressure;BME280_temperature;BME280_humidity;BME280_pressure;Samples;Min_cycle;Max_cycle;Signal;HPM_P1;HPM_P2
2022/07/22 00:02:07;;;;;;;1.35;1.05;;;21.70;59.20;;;;;;5072460;28;20063;-78
2022/07/22 00:04:32;;;;;;;1.35;1.00;;;21.70;59.20;;;;;;5069403;28;20089;-78
2022/07/22 00:06:58;;;;;;;1.80;0.95;;;21.70;59.30;;;;;;5059377;28;20044;-78
2022/07/22 00:09:24;;;;;;;1.10;1.00;;;21.70;59.30;;;;;;5068429;28;20369;-79
2022/07/22 00:11:50;;;;;;;1.95;1.10;;;21.70;59.30;;;;;;5062310;28;20056;-78
2022/07/22 00:14:16;;;;;;;1.27;0.90;;;21.70;59.30;;;;;;5068713;28;20041;-79
2022/07/22 00:16:42;;;;;;;1.77;1.08;;;21.60;59.30;;;;;;5069913;28;20444;-79
2022/07/22 00:19:07;;;;;;;1.52;0.90;;;21.70;59.30;;;;;;5068646;28;20028;-79
2022/07/22 00:21:33;;;;;;;2.40;1.00;;;21.60;59.30;;;;;;5068441;28;20032;-79
2022/07/22 00:23:59;;;;;;;1.52;0.90;;;21.60;59.30;;;;;;5072148;28;20106;-79
2022/07/22 00:26:25;;;;;;;1.05;0.98;;;21.60;59.40;;;;;;5052809;28;20469;-80
2022/07/22 00:28:51;;;;;;;1.65;1.02;;;21.60;59.40;;;;;;5049907;28;20087;-79
2022/07/22 00:31:16;;;;;;;1.38;1.00;;;21.60;59.40;;;;;;5070684;28;20059;-79
2022/07/22 00:33:42;;;;;;;1.45;0.90;;;21.60;59.40;;;;;;5052372;28;20480;-81
2022/07/22 00:36:08;;;;;;;1.85;1.08;;;21.60;59.30;;;;;;5070014;28;20035;-79
2022/07/22 00:38:35;;;;;;;1.90;1.10;;;21.50;59.30;;;;;;5070261;28;20099;-79
2022/07/22 00:41:01;;;;;;;2.13;0.98;;;21.60;59.40;;;;;;5067705;28;20036;-79
2022/07/22 00:43:27;;;;;;;2.20;1.05;;;21.50;59.30;;;;;;5085862;28;20021;-80
2022/07/22 00:45:53;;;;;;;1.85;1.00;;;21.50;59.30;;;;;;5052543;28;20037;-80
2022/07/22 00:48:19;;;;;;;1.15;0.90;;;21.50;59.30;;;;;;5052667;28;20024;-79
2022/07/22 00:50:45;;;;;;;1.33;0.95;;;21.50;59.40;;;;;;5073102;28;20025;-79
2022/07/22 00:53:11;;;;;;;1.88;0.98;;;21.50;59.30;;;;;;5077096;28;20044;-78
2022/07/22 00:55:37;;;;;;;1.75;0.90;;;21.50;59.30;;;;;;5048152;28;20499;-79
2022/07/22 00:58:04;;;;;;;1.40;1.00;;;21.50;59.40;;;;;;5069590;28;20017;-79
2022/07/22 01:00:30;;;;;;;1.92;1.08;;;21.50;59.40;;;;;;5071645;28;20066;-79
2022/07/22 01:02:56;;;;;;;1.67;1.20;;;21.40;59.40;;;;;;5046796;28;20037;-79
2022/07/22 01:05:22;;;;;;;1.75;1.10;;;21.40;59.40;;;;;;5054868;28;20253;-79
2022/07/22 01:07:48;;;;;;;0.80;0.80;;;21.50;59.40;;;;;;5067383;28;20248;-79
2022/07/22 01:10:15;;;;;;;1.70;1.10;;;21.40;59.40;;;;;;5051433;28;20079;-79
2022/07/22 01:12:40;;;;;;;1.27;0.90;;;21.40;59.40;;;;;;5068748;28;20054;-79
2022/07/22 01:15:07;;;;;;;2.83;1.20;;;21.40;59.40;;;;;;5068762;28;20035;-78
2022/07/22 01:17:33;;;;;;;2.03;1.00;;;21.40;59.50;;;;;;5080020;28;20036;-79
2022/07/22 01:20:05;;;;;;;2.08;1.00;;;21.40;59.40;;;;;;5052258;28;20029;-78
2022/07/22 01:22:31;;;;;;;2.33;1.10;;;21.40;59.60;;;;;;5069396;28;20027;-80
2022/07/22 01:24:57;;;;;;;1.30;0.85;;;21.40;59.50;;;;;;5048524;28;20024;-79
2022/07/22 01:27:23;;;;;;;1.15;0.88;;;21.40;59.50;;;;;;5069141;28;20032;-79
2022/07/22 01:29:49;;;;;;;1.05;0.82;;;21.30;59.50;;;;;;5053384;28;20039;-78
2022/07/22 01:32:15;;;;;;;1.27;1.00;;;21.30;59.50;;;;;;5069317;28;20036;-79
2022/07/22 01:34:43;;;;;;;2.25;0.77;;;21.30;59.50;;;;;;5050776;28;20028;-78
2022/07/22 01:37:10;;;;;;;1.73;1.00;;;21.30;59.50;;;;;;5066083;28;20024;-79
2022/07/22 01:39:35;;;;;;;1.20;1.00;;;21.30;59.60;;;;;;5064359;28;20060;-79
2022/07/22 01:42:01;;;;;;;1.83;0.95;;;21.30;59.60;;;;;;5049013;28;20118;-80
2022/07/22 01:44:27;;;;;;;1.88;1.00;;;21.30;59.60;;;;;;5065834;28;20047;-81
2022/07/22 01:46:53;;;;;;;0.90;0.85;;;21.30;59.60;;;;;;5071168;28;20043;-78
2022/07/22 01:49:21;;;;;;;2.25;1.10;;;21.30;59.60;;;;;;5058251;28;20039;-79
2022/07/22 01:51:47;;;;;;;1.85;1.08;;;21.30;59.50;;;;;;5066714;28;20028;-78
2022/07/22 01:54:13;;;;;;;1.65;1.00;;;21.30;59.50;;;;;;5075034;28;20040;-79
2022/07/22 01:56:39;;;;;;;1.40;0.93;;;21.30;59.50;;;;;;5057455;28;20032;-78
2022/07/22 01:59:05;;;;;;;1.42;1.05;;;21.20;59.50;;;;;;5039402;28;20036;-79
2022/07/22 02:01:31;;;;;;;1.85;1.10;;;21.20;59.50;;;;;;5059654;28;20044;-78
2022/07/22 02:03:56;;;;;;;1.98;1.15;;;21.20;59.50;;;;;;5067008;28;20041;-82
2022/07/22 02:06:22;;;;;;;1.33;1.00;;;21.20;59.50;;;;;;5056335;28;20032;-78
2022/07/22 02:08:48;;;;;;;1.48;1.10;;;21.20;59.60;;;;;;5052207;28;20081;-79
2022/07/22 02:11:32;;;;;;;1.90;1.00;;;21.20;59.60;;;;;;5069588;28;20051;-79
2022/07/22 02:13:59;;;;;;;0.93;0.88;;;21.20;59.50;;;;;;5053025;28;20143;-79
2022/07/22 02:16:27;;;;;;;0.80;0.80;;;21.20;59.50;;;;;;5053357;28;20046;-79
2022/07/22 02:18:54;;;;;;;1.45;1.10;;;21.20;59.60;;;;;;5071125;28;20183;-79
2022/07/22 02:21:21;;;;;;;0.90;0.90;;;21.20;59.60;;;;;;5064681;28;20110;-78
2022/07/22 02:23:47;;;;;;;0.85;0.82;;;21.10;59.60;;;;;;5070389;28;20443;-80
2022/07/22 02:26:12;;;;;;;1.70;1.20;;;21.20;59.60;;;;;;5053878;28;20071;-79
2022/07/22 02:28:38;;;;;;;1.88;1.17;;;21.10;59.60;;;;;;5064559;28;20130;-78
2022/07/22 02:31:04;;;;;;;1.38;0.95;;;21.10;59.60;;;;;;5070515;28;20029;-79
2022/07/22 02:33:30;;;;;;;2.22;1.10;;;21.10;59.60;;;;;;5085237;28;20132;-79
2022/07/22 02:35:57;;;;;;;2.60;1.30;;;21.10;59.60;;;;;;5071181;28;20461;-78
2022/07/22 02:38:23;;;;;;;1.33;0.95;;;21.10;59.60;;;;;;5053932;28;20039;-78
2022/07/22 02:40:49;;;;;;;1.10;0.88;;;21.10;59.60;;;;;;5074716;28;20036;-79
2022/07/22 02:43:15;;;;;;;1.52;1.00;;;21.10;59.70;;;;;;5069257;28;20040;-79
2022/07/22 02:45:41;;;;;;;1.48;1.00;;;21.10;59.70;;;;;;5072360;28;20029;-79
2022/07/22 02:48:07;;;;;;;2.00;0.85;;;21.10;59.70;;;;;;5068049;28;20033;-79
2022/07/22 02:50:34;;;;;;;0.90;0.90;;;21.00;59.60;;;;;;5072732;28;20051;-79
2022/07/22 02:53:00;;;;;;;2.08;1.17;;;21.00;59.60;;;;;;5065672;28;20036;-79
2022/07/22 02:55:30;;;;;;;1.40;1.10;;;21.00;59.60;;;;;;5070613;28;20028;-79
2022/07/22 02:58:05;;;;;;;2.08;1.08;;;21.00;59.60;;;;;;5055282;28;20572;-79
2022/07/22 03:00:31;;;;;;;1.33;1.00;;;21.00;59.70;;;;;;5061146;28;20016;-79
2022/07/22 03:02:57;;;;;;;1.10;0.93;;;21.00;59.70;;;;;;5050032;28;20075;-79
2022/07/22 03:05:23;;;;;;;1.88;1.00;;;21.00;59.70;;;;;;5071901;28;20052;-80
2022/07/22 03:07:52;;;;;;;1.60;1.10;;;21.00;59.70;;;;;;5035919;28;20127;-79
2022/07/22 03:10:19;;;;;;;1.15;1.00;;;21.00;59.70;;;;;;5073643;28;20024;-79
2022/07/22 03:12:46;;;;;;;2.15;1.10;;;20.90;59.70;;;;;;5089971;28;20464;-78
2022/07/22 03:15:11;;;;;;;1.10;1.00;;;20.90;59.60;;;;;;5057295;28;20044;-78
2022/07/22 03:17:37;;;;;;;1.83;1.10;;;20.90;59.60;;;;;;5051397;28;20022;-78
2022/07/22 03:20:06;;;;;;;1.27;1.10;;;20.90;59.60;;;;;;5065029;28;20017;-79
2022/07/22 03:22:32;;;;;;;1.63;1.00;;;20.90;59.70;;;;;;5084976;28;20552;-79
2022/07/22 03:24:59;;;;;;;0.95;0.90;;;20.90;59.70;;;;;;5065034;28;20020;-79
2022/07/22 03:27:25;;;;;;;1.02;0.93;;;20.90;59.70;;;;;;5054917;28;20082;-79
2022/07/22 03:29:51;;;;;;;1.20;1.10;;;20.90;59.80;;;;;;5070572;28;20082;-79
2022/07/22 03:32:18;;;;;;;1.27;1.10;;;20.90;59.80;;;;;;5070951;28;20115;-79
2022/07/22 03:34:46;;;;;;;1.80;1.10;;;20.90;59.70;;;;;;5071334;28;20443;-80
2022/07/22 03:37:12;;;;;;;0.85;0.80;;;20.90;59.80;;;;;;5069155;28;20036;-78
2022/07/22 03:39:39;;;;;;;1.45;1.10;;;20.80;59.70;;;;;;5066637;28;20032;-79
2022/07/22 03:42:05;;;;;;;1.00;1.00;;;20.80;59.70;;;;;;5067475;28;20042;-79
2022/07/22 03:44:38;;;;;;;4.25;1.17;;;20.90;59.80;;;;;;5055172;28;20029;-79
2022/07/22 03:47:04;;;;;;;2.38;0.90;;;20.80;59.70;;;;;;5037331;28;20067;-80
2022/07/22 03:49:31;;;;;;;1.15;1.00;;;20.80;59.80;;;;;;5070343;28;20037;-80
2022/07/22 03:51:58;;;;;;;1.40;0.93;;;20.80;59.80;;;;;;5054088;28;20469;-80
2022/07/22 03:54:24;;;;;;;1.45;1.10;;;20.80;59.80;;;;;;5056534;28;20040;-80
2022/07/22 03:56:50;;;;;;;1.85;1.25;;;20.80;59.80;;;;;;5054797;28;20029;-78
2022/07/22 03:59:16;;;;;;;2.10;1.05;;;20.80;59.80;;;;;;5053528;28;20115;-78
2022/07/22 04:01:43;;;;;;;0.90;0.80;;;20.80;59.80;;;;;;5080787;28;20139;-80
2022/07/22 04:04:10;;;;;;;1.33;1.05;;;20.80;59.80;;;;;;5070470;28;20044;-78
2022/07/22 04:06:40;;;;;;;1.17;1.08;;;20.80;59.80;;;;;;5072391;28;20505;-78
2022/07/22 04:09:11;;;;;;;1.60;0.95;;;20.80;59.80;;;;;;5070498;28;20477;-79
2022/07/22 04:11:37;;;;;;;1.25;0.98;;;20.70;59.80;;;;;;5053044;28;20119;-78
2022/07/22 04:14:03;;;;;;;1.30;1.00;;;20.70;59.80;;;;;;5050657;28;20036;-79
2022/07/22 04:16:29;;;;;;;1.27;1.08;;;20.70;59.80;;;;;;5069850;28;20025;-78
2022/07/22 04:19:03;;;;;;;1.10;1.00;;;20.70;59.80;;;;;;5069246;28;20124;-80
2022/07/22 04:21:50;;;;;;;2.25;1.20;;;20.70;59.80;;;;;;5055959;28;20020;-79
2022/07/22 04:24:18;;;;;;;1.20;1.10;;;20.70;59.80;;;;;;5049869;28;20746;-78
2022/07/22 04:26:44;;;;;;;1.55;1.17;;;20.70;59.90;;;;;;5034269;28;20059;-79
2022/07/22 04:29:10;;;;;;;1.92;1.10;;;20.70;59.90;;;;;;5048115;28;20035;-79
2022/07/22 04:31:36;;;;;;;1.73;1.00;;;20.70;59.90;;;;;;5068381;28;20115;-79
2022/07/22 04:34:10;;;;;;;0.98;0.93;;;20.70;59.90;;;;;;5060268;28;20488;-79
2022/07/22 04:36:36;;;;;;;1.20;1.10;;;20.70;59.90;;;;;;5072855;28;20530;-78
2022/07/22 04:39:02;;;;;;;0.95;0.90;;;20.70;59.90;;;;;;5050374;28;20032;-79
2022/07/22 04:41:28;;;;;;;2.10;1.13;;;20.70;59.90;;;;;;5065911;28;20048;-79
2022/07/22 04:43:54;;;;;;;1.52;1.10;;;20.70;59.90;;;;;;5082343;28;20518;-80
2022/07/22 04:46:23;;;;;;;1.40;1.00;;;20.70;60.00;;;;;;5058096;28;20083;-81
2022/07/22 04:48:49;;;;;;;1.33;1.02;;;20.60;59.90;;;;;;5090076;28;20028;-79
2022/07/22 04:51:15;;;;;;;1.30;1.20;;;20.60;59.90;;;;;;5069833;28;20037;-81
2022/07/22 04:53:44;;;;;;;1.23;1.00;;;20.70;60.00;;;;;;5055086;28;20054;-80
2022/07/22 04:56:10;;;;;;;1.35;1.10;;;20.60;59.90;;;;;;5052436;28;20045;-79
2022/07/22 04:58:36;;;;;;;2.28;1.10;;;20.60;60.00;;;;;;5051424;28;20385;-78
2022/07/22 05:01:02;;;;;;;2.50;1.00;;;20.60;60.30;;;;;;5053646;28;20045;-79
2022/07/22 05:03:28;;;;;;;1.23;1.02;;;20.60;60.00;;;;;;5035841;28;20039;-78
2022/07/22 05:05:54;;;;;;;2.08;1.25;;;20.60;60.00;;;;;;5061184;28;20156;-78
2022/07/22 05:08:27;;;;;;;1.58;1.23;;;20.60;60.00;;;;;;5038358;28;20036;-79
2022/07/22 05:10:53;;;;;;;2.03;1.20;;;20.60;60.00;;;;;;5050067;28;20213;-79
2022/07/22 05:13:19;;;;;;;1.30;1.10;;;20.60;60.00;;;;;;5063770;28;20048;-77
2022/07/22 05:15:45;;;;;;;1.40;1.05;;;20.60;60.00;;;;;;5051336;28;20028;-79
2022/07/22 05:18:11;;;;;;;2.03;1.42;;;20.60;60.00;;;;;;5065155;28;20028;-80
2022/07/22 05:20:37;;;;;;;1.25;1.10;;;20.60;60.00;;;;;;5049795;28;20029;-79
2022/07/22 05:23:03;;;;;;;1.30;1.15;;;20.60;60.00;;;;;;5046679;28;20487;-78
2022/07/22 05:25:31;;;;;;;1.10;1.00;;;20.60;60.00;;;;;;5037355;28;20025;-78
2022/07/22 05:27:57;;;;;;;0.85;0.80;;;20.60;60.00;;;;;;5065268;28;20036;-80
2022/07/22 05:30:38;;;;;;;2.03;1.00;;;20.60;60.00;;;;;;5066478;28;20059;-78
2022/07/22 05:33:06;;;;;;;1.55;1.05;;;20.60;60.00;;;;;;5063252;28;20423;-79
2022/07/22 05:35:50;;;;;;;1.57;1.33;;;20.60;60.00;;;;;;5069290;28;20036;-79
2022/07/22 05:38:17;;;;;;;1.38;1.00;;;20.60;60.00;;;;;;5039600;28;20028;-78
2022/07/22 05:40:43;;;;;;;1.65;1.20;;;20.60;60.00;;;;;;5067438;28;20431;-79
2022/07/22 05:43:09;;;;;;;1.85;1.00;;;20.60;60.00;;;;;;5071867;28;20128;-80
2022/07/22 05:45:35;;;;;;;1.23;0.93;;;20.60;60.10;;;;;;5069960;28;20386;-80
2022/07/22 05:48:01;;;;;;;1.30;1.08;;;20.60;60.10;;;;;;5067892;28;20096;-79
2022/07/22 05:50:28;;;;;;;1.00;0.90;;;20.60;60.10;;;;;;5069096;28;20032;-79
2022/07/22 05:52:55;;;;;;;1.92;1.00;;;20.60;60.10;;;;;;5070758;28;20044;-79
2022/07/22 05:55:21;;;;;;;1.25;1.08;;;20.60;60.10;;;;;;5053950;28;20665;-78
2022/07/22 05:57:47;;;;;;;1.67;1.10;;;20.60;60.10;;;;;;5090142;28;20023;-79
2022/07/22 06:00:15;;;;;;;1.17;0.93;;;20.60;60.10;;;;;;5059453;28;20044;-78
2022/07/22 06:02:42;;;;;;;1.52;1.20;;;20.60;60.10;;;;;;5072882;28;20040;-78
2022/07/22 06:05:12;;;;;;;1.88;1.10;;;20.60;60.80;;;;;;5059329;28;20132;-79
2022/07/22 06:07:38;;;;;;;1.20;1.10;;;20.60;60.10;;;;;;5039625;28;20123;-79
2022/07/22 06:10:05;;;;;;;1.65;1.05;;;20.60;60.10;;;;;;5073166;28;20033;-77
2022/07/22 06:12:33;;;;;;;1.23;0.93;;;20.60;60.10;;;;;;5056294;28;20064;-78
2022/07/22 06:14:58;;;;;;;1.77;1.20;;;20.60;60.10;;;;;;5072943;28;20055;-79
2022/07/22 06:17:24;;;;;;;1.38;0.85;;;20.60;60.10;;;;;;5055888;28;20029;-78
2022/07/22 06:19:50;;;;;;;1.05;0.80;;;20.60;60.80;;;;;;5058960;28;20069;-78
2022/07/22 06:22:19;;;;;;;1.00;0.90;;;20.60;60.10;;;;;;5073454;28;20043;-79
2022/07/22 06:24:45;;;;;;;1.65;0.90;;;20.60;60.10;;;;;;5073194;28;20051;-77
2022/07/22 06:27:12;;;;;;;1.05;0.90;;;20.60;60.10;;;;;;5062438;28;20051;-77
2022/07/22 06:29:38;;;;;;;1.75;0.82;;;20.60;60.10;;;;;;5056292;28;20028;-78
2022/07/22 06:32:05;;;;;;;1.15;1.00;;;20.60;60.10;;;;;;5072426;28;20115;-78
2022/07/22 06:34:30;;;;;;;1.25;0.90;;;20.60;60.10;;;;;;5039590;28;20024;-79
2022/07/22 06:37:01;;;;;;;1.30;0.90;;;20.60;60.10;;;;;;5056792;28;20565;-79
2022/07/22 06:39:27;;;;;;;0.93;0.90;;;20.60;60.10;;;;;;5058225;28;20032;-79
2022/07/22 06:42:08;;;;;;;0.77;0.77;;;20.60;60.10;;;;;;5072626;28;20035;-78
2022/07/22 06:44:52;;;;;;;1.92;0.88;;;20.70;60.20;;;;;;5072315;28;20088;-78
2022/07/22 06:47:38;;;;;;;0.80;0.70;;;20.70;60.10;;;;;;5057664;28;20043;-78
2022/07/22 06:50:09;;;;;;;1.05;0.80;;;20.70;60.10;;;;;;5071975;28;20484;-79
2022/07/22 06:52:39;;;;;;;2.53;1.20;;;20.70;60.90;;;;;;5072632;28;20029;-79
2022/07/22 06:55:06;;;;;;;1.30;1.20;;;20.70;60.20;;;;;;5071679;28;20028;-78
2022/07/22 06:57:35;;;;;;;2.60;0.90;;;20.70;60.10;;;;;;5061788;28;20017;-78
2022/07/22 07:00:03;;;;;;;1.20;0.90;;;20.70;60.10;;;;;;5079218;28;20521;-78
2022/07/22 07:02:29;;;;;;;0.85;0.85;;;20.70;60.10;;;;;;5057220;28;20051;-79
2022/07/22 07:04:54;;;;;;;1.33;0.82;;;20.70;60.10;;;;;;5071478;28;20036;-77
2022/07/22 07:07:21;;;;;;;0.90;0.90;;;20.70;60.10;;;;;;5072532;28;20484;-78
2022/07/22 07:09:58;;;;;;;1.45;1.10;;;20.70;60.10;;;;;;5071594;28;20024;-78
2022/07/22 07:12:40;;;;;;;1.13;1.00;;;20.70;60.10;;;;;;5067564;28;20433;-80
2022/07/22 07:15:07;;;;;;;1.05;0.90;;;20.70;60.00;;;;;;5071577;28;20112;-78
2022/07/22 07:17:32;;;;;;;1.20;0.90;;;20.70;60.00;;;;;;5036715;28;20523;-78
2022/07/22 07:20:00;;;;;;;1.15;0.98;;;20.70;60.00;;;;;;5066452;28;20081;-78
2022/07/22 07:22:25;;;;;;;1.20;0.90;;;20.80;60.00;;;;;;5052165;28;20036;-78
2022/07/22 07:24:51;;;;;;;0.80;0.80;;;20.80;60.00;;;;;;5052405;28;20035;-77
2022/07/22 07:27:17;;;;;;;0.77;0.77;;;20.80;60.10;;;;;;5071744;28;20135;-78
2022/07/22 07:29:45;;;;;;;1.25;0.90;;;20.80;60.00;;;;;;5067878;28;20028;-77
2022/07/22 07:32:12;;;;;;;0.98;0.80;;;20.80;60.00;;;;;;5073442;28;20036;-78
2022/07/22 07:34:38;;;;;;;1.13;0.90;;;20.90;60.10;;;;;;5073635;28;20035;-78
2022/07/22 07:37:04;;;;;;;0.77;0.70;;;20.90;60.00;;;;;;5058970;28;20031;-79
2022/07/22 07:39:30;;;;;;;1.70;1.02;;;20.90;60.00;;;;;;5072600;28;20400;-78
2022/07/22 07:41:55;;;;;;;1.27;1.00;;;20.90;60.00;;;;;;5074240;28;20028;-79
2022/07/22 07:44:23;;;;;;;1.80;0.93;;;20.90;60.00;;;;;;5038401;28;20338;-80
2022/07/22 07:46:48;;;;;;;1.27;0.77;;;20.90;59.90;;;;;;5062972;28;20032;-78
2022/07/22 07:49:14;;;;;;;1.08;0.90;;;21.00;59.90;;;;;;5068419;28;20443;-78
2022/07/22 07:51:40;;;;;;;0.93;0.93;;;21.00;59.90;;;;;;5068609;28;20037;-78
2022/07/22 07:54:05;;;;;;;1.05;0.90;;;21.00;59.90;;;;;;5074399;28;20038;-79
2022/07/22 07:56:32;;;;;;;1.33;0.80;;;21.00;59.80;;;;;;5070840;28;20033;-78
2022/07/22 07:58:58;;;;;;;0.90;0.90;;;21.10;59.90;;;;;;5075970;28;20039;-78
2022/07/22 08:01:24;;;;;;;1.35;0.80;;;21.10;59.90;;;;;;5070641;28;20048;-78
2022/07/22 08:03:50;;;;;;;1.15;0.93;;;21.10;59.80;;;;;;5070629;28;20782;-78
2022/07/22 08:06:16;;;;;;;1.95;1.02;;;21.10;59.80;;;;;;5054041;28;20036;-78
2022/07/22 08:08:41;;;;;;;1.98;1.00;;;21.10;59.80;;;;;;5069841;28;20422;-80
2022/07/22 08:11:16;;;;;;;1.00;0.90;;;21.20;59.80;;;;;;5078543;28;20120;-79
2022/07/22 08:13:56;;;;;;;1.75;0.90;;;21.20;59.70;;;;;;5057373;28;20138;-79
2022/07/22 08:16:36;;;;;;;0.80;0.80;;;21.20;59.70;;;;;;5068665;28;20047;-78
2022/07/22 08:19:02;;;;;;;0.82;0.73;;;21.20;59.70;;;;;;5084557;28;20028;-78
2022/07/22 08:21:29;;;;;;;1.35;0.95;;;21.20;59.70;;;;;;5070392;28;20484;-78
2022/07/22 08:23:56;;;;;;;2.08;0.90;;;21.30;59.70;;;;;;5056818;28;20032;-78
2022/07/22 08:26:23;;;;;;;1.17;0.85;;;21.30;59.70;;;;;;5053610;28;20067;-79
2022/07/22 08:28:49;;;;;;;1.00;0.88;;;21.30;60.20;;;;;;5071065;28;20028;-78
2022/07/22 08:31:15;;;;;;;1.23;1.10;;;21.40;59.60;;;;;;5069175;28;20692;-78
2022/07/22 08:33:41;;;;;;;1.75;1.08;;;21.40;59.60;;;;;;5070005;28;20035;-80
2022/07/22 08:36:07;;;;;;;1.05;0.88;;;21.40;59.50;;;;;;5069656;28;20024;-80
2022/07/22 08:38:34;;;;;;;1.00;0.80;;;21.40;59.50;;;;;;5055629;28;20400;-78
2022/07/22 08:41:02;;;;;;;1.20;0.85;;;21.50;59.50;;;;;;5072172;28;20033;-78
2022/07/22 08:43:27;;;;;;;1.17;0.75;;;21.50;59.40;;;;;;5072307;28;20157;-82
2022/07/22 08:45:53;;;;;;;1.30;0.88;;;21.60;59.40;;;;;;5053568;28;20131;-78
2022/07/22 08:48:19;;;;;;;1.80;0.90;;;21.60;59.40;;;;;;5071258;28;20045;-78
2022/07/22 08:51:01;;;;;;;0.82;0.73;;;21.60;59.30;;;;;;5071349;28;20037;-79
2022/07/22 08:53:33;;;;;;;1.05;0.80;;;21.60;59.30;;;;;;5069977;28;20040;-78
2022/07/22 08:56:07;;;;;;;0.70;0.70;;;21.70;59.30;;;;;;5053773;28;20029;-78
2022/07/22 08:58:33;;;;;;;0.93;0.82;;;21.70;59.30;;;;;;5069646;28;20473;-78
2022/07/22 09:01:08;;;;;;;1.25;0.88;;;21.70;59.20;;;;;;5054755;28;20047;-79
2022/07/22 09:03:51;;;;;;;0.80;0.80;;;21.80;59.30;;;;;;5038214;28;20025;-79
2022/07/22 09:06:19;;;;;;;0.70;0.70;;;21.90;59.30;;;;;;5069869;28;20376;-78
2022/07/22 09:09:14;;;;;;;1.00;0.70;;;21.90;59.20;;;;;;5072608;28;20032;-78
2022/07/22 09:12:08;;;;;;;1.85;1.02;;;21.90;59.30;;;;;;5063700;28;20032;-79
2022/07/22 09:14:50;;;;;;;1.45;0.90;;;22.00;59.10;;;;;;5069731;28;20037;-80
2022/07/22 09:17:54;;;;;;;0.82;0.82;;;22.00;59.00;;;;;;5047593;28;20032;-79
2022/07/22 09:20:32;;;;;;;0.82;0.82;;;22.00;59.60;;;;;;5084968;28;20124;-79
2022/07/22 09:23:18;;;;;;;;;;;22.10;59.00;;;;;;5073665;28;20127;-78
2022/07/22 09:25:45;;;;;;;1.10;0.90;;;22.10;58.80;;;;;;5098327;28;19912;-78
2022/07/22 09:28:54;;;;;;;0.82;0.80;;;22.10;58.80;;;;;;5051351;28;20032;-78
2022/07/22 09:31:29;;;;;;;1.15;0.80;;;22.20;59.00;;;;;;5073816;28;20064;-78
2022/07/22 09:34:04;;;;;;;1.00;0.90;;;22.20;58.90;;;;;;5088167;28;20037;-79
2022/07/22 09:36:30;;;;;;;1.25;0.93;;;22.20;58.80;;;;;;5080616;28;20478;-78
2022/07/22 09:38:57;;;;;;;1.80;0.82;;;22.30;58.90;;;;;;5057255;28;20020;-79
2022/07/22 09:41:23;;;;;;;1.33;0.80;;;22.30;58.90;;;;;;5071748;28;20476;-80
2022/07/22 09:43:52;;;;;;;1.45;0.95;;;22.30;58.80;;;;;;5073676;28;20043;-80
2022/07/22 09:46:35;;;;;;;1.23;1.00;;;22.40;58.80;;;;;;5054723;28;20036;-79
2022/07/22 09:49:41;;;;;;;1.23;0.85;;;22.40;58.90;;;;;;5071098;28;20039;-79
2022/07/22 09:52:43;;;;;;;1.08;0.88;;;22.50;58.80;;;;;;5022923;28;20041;-82
2022/07/22 09:55:17;;;;;;;1.50;1.00;;;22.50;58.60;;;;;;5051569;28;20052;-84
2022/07/22 09:57:44;;;;;;;1.45;1.10;;;22.50;58.60;;;;;;5041222;28;20032;-81
2022/07/22 10:00:12;;;;;;;0.90;0.90;;;22.60;58.60;;;;;;5074924;28;20370;-82
2022/07/22 10:02:46;;;;;;;1.08;0.95;;;22.60;58.60;;;;;;5057373;28;20045;-79
2022/07/22 10:05:13;;;;;;;1.35;1.13;;;22.60;58.50;;;;;;5077329;28;20143;-81
2022/07/22 10:07:41;;;;;;;1.30;1.00;;;22.60;58.50;;;;;;5055156;28;20028;-81
2022/07/22 10:10:09;;;;;;;1.98;1.00;;;22.70;58.50;;;;;;5090950;28;20021;-80
2022/07/22 10:12:37;;;;;;;1.35;0.90;;;22.70;58.40;;;;;;5080951;28;20099;-85
2022/07/22 10:15:03;;;;;;;1.33;1.00;;;22.70;58.30;;;;;;5076168;28;20033;-80
2022/07/22 10:17:30;;;;;;;1.55;1.00;;;22.80;58.30;;;;;;5072545;28;20397;-79
2022/07/22 10:19:57;;;;;;;1.27;0.80;;;22.80;58.30;;;;;;5071090;28;20032;-79
2022/07/22 10:22:47;;;;;;;1.30;0.90;;;22.80;58.20;;;;;;5071998;28;20031;-79
2022/07/22 10:25:14;;;;;;;1.13;1.02;;;22.90;58.30;;;;;;5073024;28;20044;-83
2022/07/22 10:27:49;;;;;;;1.77;0.80;;;22.90;58.10;;;;;;5072491;28;20029;-82
2022/07/22 10:30:19;;;;;;;0.82;0.82;;;22.90;58.00;;;;;;5060219;28;20057;-82
2022/07/22 10:32:45;;;;;;;1.67;0.73;;;23.00;58.00;;;;;;5071433;28;20028;-82
2022/07/22 10:35:10;;;;;;;1.50;1.05;;;23.00;57.90;;;;;;5063210;28;20041;-83
2022/07/22 10:37:40;;;;;;;0.70;0.70;;;23.10;57.90;;;;;;5071520;28;20031;-81
2022/07/22 10:40:13;;;;;;;0.98;0.90;;;23.10;57.80;;;;;;5089001;28;20021;-81
2022/07/22 10:43:00;;;;;;;0.75;0.68;;;23.10;57.80;;;;;;5071378;28;20032;-81
2022/07/22 10:45:59;;;;;;;1.50;1.00;;;23.20;57.80;;;;;;5066459;28;20037;-82
2022/07/22 10:48:45;;;;;;;1.17;0.88;;;23.30;57.70;;;;;;5071704;28;20051;-82
2022/07/22 10:51:16;;;;;;;2.17;0.90;;;23.30;57.60;;;;;;5070926;28;20029;-82
2022/07/22 10:53:45;;;;;;;1.20;0.88;;;23.30;57.50;;;;;;5067396;28;20032;-82
2022/07/22 10:56:16;;;;;;;1.17;0.90;;;23.40;57.40;;;;;;5069912;28;20028;-82
2022/07/22 10:58:57;;;;;;;2.00;0.90;;;23.40;57.30;;;;;;5068551;28;20111;-82
2022/07/22 11:01:27;;;;;;;0.85;0.85;;;23.50;57.30;;;;;;5075666;28;20087;-82
2022/07/22 11:03:53;;;;;;;0.77;0.77;;;23.60;57.20;;;;;;5054123;28;20483;-82
2022/07/22 11:06:25;;;;;;;1.25;0.80;;;23.60;57.10;;;;;;5057333;28;20079;-82
2022/07/22 11:09:04;;;;;;;0.90;0.82;;;23.70;57.00;;;;;;5045465;28;20024;-77
2022/07/22 11:11:45;;;;;;;0.95;0.85;;;23.70;57.00;;;;;;5035780;28;20095;-81
2022/07/22 11:14:21;;;;;;;1.13;0.77;;;23.70;56.90;;;;;;5076700;28;20043;-82
2022/07/22 11:16:49;;;;;;;0.93;0.85;;;23.80;56.80;;;;;;5080355;28;20115;-84
2022/07/22 11:19:29;;;;;;;0.70;0.70;;;23.80;56.70;;;;;;5076952;28;20039;-81
2022/07/22 11:21:57;;;;;;;1.30;0.88;;;23.90;56.60;;;;;;5063936;28;20061;-86
2022/07/22 11:24:24;;;;;;;1.27;1.08;;;23.90;56.50;;;;;;5053977;28;20029;-82
2022/07/22 11:26:52;;;;;;;1.48;0.95;;;24.00;56.50;;;;;;5062644;28;20107;-84
2022/07/22 11:29:25;;;;;;;1.25;0.85;;;24.00;56.40;;;;;;5070124;28;20035;-84
2022/07/22 11:31:51;;;;;;;0.93;0.85;;;24.10;56.40;;;;;;5066740;28;20017;-83
2022/07/22 11:34:17;;;;;;;0.65;0.65;;;24.10;56.30;;;;;;5026732;28;20067;-82
2022/07/22 11:36:45;;;;;;;1.10;0.88;;;24.10;56.20;;;;;;5044973;28;20032;-86
2022/07/22 11:39:13;;;;;;;1.50;1.20;;;24.20;55.90;;;;;;5071308;28;20058;-91
2022/07/22 11:41:40;;;;;;;1.23;1.08;;;24.20;55.50;;;;;;5054271;28;20044;-85
2022/07/22 11:44:07;;;;;;;1.98;1.10;;;24.20;55.10;;;;;;5063210;28;20123;-81
2022/07/22 11:46:40;;;;;;;2.13;1.08;;;24.20;54.80;;;;;;5049444;28;20037;-83
2022/07/22 11:49:07;;;;;;;6.32;2.33;;;24.20;54.70;;;;;;5039035;28;20028;-83
2022/07/22 11:51:35;;;;;;;6.10;1.92;;;24.30;54.70;;;;;;5061741;28;20021;-81
2022/07/22 11:54:02;;;;;;;4.00;1.80;;;24.40;54.70;;;;;;5069423;28;20039;-88
2022/07/22 11:56:28;;;;;;;2.15;1.23;;;24.30;54.40;;;;;;5072032;28;20112;-80
2022/07/22 11:58:55;;;;;;;2.35;1.33;;;24.30;54.30;;;;;;5043542;28;20052;-83
2022/07/22 12:01:28;;;;;;;2.40;1.05;;;24.40;54.20;;;;;;5045152;28;20124;-83
2022/07/22 12:04:24;;;;;;;1.48;1.13;;;24.40;54.20;;;;;;5052891;28;20021;-85
2022/07/22 12:06:53;;;;;;;2.25;1.35;;;24.40;54.30;;;;;;5056756;28;20124;-82
2022/07/22 12:09:19;;;;;;;3.72;1.20;;;24.40;54.20;;;;;;5066022;28;20453;-85
2022/07/22 12:11:50;;;;;;;2.10;1.10;;;24.40;54.20;;;;;;5071535;28;20043;-87
2022/07/22 12:14:19;;;;;;;3.08;1.10;;;24.50;54.30;;;;;;5056786;28;20029;-81
2022/07/22 12:16:54;;;;;;;2.70;1.17;;;24.50;54.30;;;;;;5075476;28;20021;-92
2022/07/22 12:19:21;;;;;;;1.65;1.20;;;24.60;54.20;;;;;;5072668;28;20043;-80
2022/07/22 12:21:56;;;;;;;1.50;1.05;;;24.50;53.80;;;;;;5071912;28;20528;-80
2022/07/22 12:24:35;;;;;;;1.20;1.02;;;24.60;53.80;;;;;;5057847;28;20028;-80
2022/07/22 12:27:04;;;;;;;1.23;1.00;;;24.60;53.70;;;;;;5082886;28;20044;-82
2022/07/22 12:29:36;;;;;;;1.75;1.10;;;24.60;53.40;;;;;;5068069;28;20465;-77
2022/07/22 12:32:07;;;;;;;2.92;1.30;;;24.60;53.10;;;;;;5069765;28;20121;-82
2022/07/22 12:34:37;;;;;;;1.50;1.20;;;24.70;53.00;;;;;;5070658;28;20039;-82
2022/07/22 12:37:23;;;;;;;1.80;1.25;;;24.70;52.90;;;;;;5066498;28;20480;-83
2022/07/22 12:39:56;;;;;;;1.42;1.10;;;24.70;52.80;;;;;;5072223;28;20023;-82
2022/07/22 12:42:24;;;;;;;1.42;1.10;;;24.70;52.60;;;;;;5071089;28;20025;-80
2022/07/22 12:44:53;;;;;;;2.05;1.23;;;24.70;52.50;;;;;;5070768;28;20079;-84
2022/07/22 12:47:47;;;;;;;1.67;1.23;;;24.70;52.50;;;;;;5057934;28;20035;-81
2022/07/22 12:50:17;;;;;;;1.67;1.27;;;24.70;52.50;;;;;;5054039;28;20028;-82
2022/07/22 12:52:43;;;;;;;1.15;0.98;;;24.80;52.50;;;;;;5083934;28;20040;-83
2022/07/22 12:55:08;;;;;;;1.85;1.00;;;24.80;52.50;;;;;;5076711;28;20029;-84
2022/07/22 12:57:34;;;;;;;2.95;1.05;;;24.80;52.40;;;;;;5048888;28;20029;-86
2022/07/22 13:00:00;;;;;;;1.92;1.15;;;24.80;52.20;;;;;;5076936;28;20028;-82